sensor_id;sensor_type;location;lat;lon;timestamp;P1;durP1;ratioP1;P2;durP2;ratioP2
14472;SDS011;7322;50.872;4.386;2023-07-13T00:01:49;4.80;;;1.77;;
14472;SDS011;7322;50.872;4.386;2023-07-13T00:04:16;5.13;;;1.75;;
14472;SDS011;7322;50.872;4.386;2023-07-13T00:06:45;4.15;;;1.70;;
14472;SDS011;7322;50.872;4.386;2023-07-13T00:09:13;4.60;;;2.00;;
14472;SDS011;7322;50.872;4.386;2023-07-13T00:11:41;4.30;;;2.28;;
14472;SDS011;7322;50.872;4.386;2023-07-13T00:14:08;6.03;;;1.90;;
14472;SDS011;7322;50.872;4.386;2023-07-13T00:16:38;5.88;;;1.92;;
14472;SDS011;7322;50.872;4.386;2023-07-13T00:19:08;4.18;;;1.83;;
14472;SDS011;7322;50.872;4.386;2023-07-13T00:21:36;6.00;;;1.80;;
14472;SDS011;7322;50.872;4.386;2023-07-13T00:24:03;5.40;;;2.00;;
14472;SDS011;7322;50.872;4.386;2023-07-13T00:26:31;4.03;;;1.80;;
14472;SDS011;7322;50.872;4.386;2023-07-13T00:28:59;4.13;;;1.90;;
14472;SDS011;7322;50.872;4.386;2023-07-13T00:31:26;4.00;;;1.40;;
14472;SDS011;7322;50.872;4.386;2023-07-13T00:33:54;4.05;;;1.90;;
14472;SDS011;7322;50.872;4.386;2023-07-13T00:36:21;4.43;;;1.88;;
14472;SDS011;7322;50.872;4.386;2023-07-13T00:38:48;5.47;;;1.60;;
14472;SDS011;7322;50.872;4.386;2023-07-13T00:41:15;4.93;;;1.83;;
14472;SDS011;7322;50.872;4.386;2023-07-13T00:43:42;4.15;;;1.98;;
14472;SDS011;7322;50.872;4.386;2023-07-13T00:46:20;6.75;;;2.20;;
14472;SDS011;7322;50.872;4.386;2023-07-13T00:48:50;5.22;;;1.92;;
14472;SDS011;7322;50.872;4.386;2023-07-13T00:51:22;4.43;;;1.88;;
14472;SDS011;7322;50.872;4.386;2023-07-13T00:53:54;4.38;;;1.83;;
14472;SDS011;7322;50.872;4.386;2023-07-13T00:56:24;5.18;;;2.05;;
14472;SDS011;7322;50.872;4.386;2023-07-13T00:58:53;4.35;;;1.80;;
14472;SDS011;7322;50.872;4.386;2023-07-13T01:01:21;5.60;;;1.85;;
14472;SDS011;7322;50.872;4.386;2023-07-13T01:03:48;6.20;;;2.20;;
14472;SDS011;7322;50.872;4.386;2023-07-13T01:06:15;5.40;;;1.60;;
14472;SDS011;7322;50.872;4.386;2023-07-13T01:08:44;3.72;;;1.50;;
14472;SDS011;7322;50.872;4.386;2023-07-13T01:11:13;5.28;;;1.95;;
14472;SDS011;7322;50.872;4.386;2023-07-13T01:13:45;5.55;;;1.70;;
14472;SDS011;7322;50.872;4.386;2023-07-13T01:16:13;4.68;;;1.95;;
14472;SDS011;7322;50.872;4.386;2023-07-13T01:18:43;3.67;;;1.48;;
14472;SDS011;7322;50.872;4.386;2023-07-13T01:21:13;3.35;;;1.60;;
14472;SDS011;7322;50.872;4.386;2023-07-13T01:23:41;3.83;;;1.90;;
14472;SDS011;7322;50.872;4.386;2023-07-13T01:26:11;4.80;;;1.90;;
14472;SDS011;7322;50.872;4.386;2023-07-13T01:28:38;3.90;;;1.60;;
14472;SDS011;7322;50.872;4.386;2023-07-13T01:31:05;7.22;;;1.90;;
14472;SDS011;7322;50.872;4.386;2023-07-13T01:33:33;5.15;;;1.83;;
14472;SDS011;7322;50.872;4.386;2023-07-13T01:36:00;4.53;;;1.80;;
14472;SDS011;7322;50.872;4.386;2023-07-13T01:38:29;4.18;;;1.50;;
14472;SDS011;7322;50.872;4.386;2023-07-13T01:40:56;5.53;;;1.73;;
14472;SDS011;7322;50.872;4.386;2023-07-13T01:43:23;3.85;;;1.73;;
14472;SDS011;7322;50.872;4.386;2023-07-13T01:45:50;4.60;;;1.85;;
14472;SDS011;7322;50.872;4.386;2023-07-13T01:48:17;5.07;;;1.67;;
14472;SDS011;7322;50.872;4.386;2023-07-13T01:50:45;5.10;;;1.90;;
14472;SDS011;7322;50.872;4.386;2023-07-13T01:53:13;5.60;;;1.55;;
14472;SDS011;7322;50.872;4.386;2023-07-13T01:55:42;6.45;;;1.90;;
14472;SDS011;7322;50.872;4.386;2023-07-13T01:58:09;3.15;;;1.77;;
14472;SDS011;7322;50.872;4.386;2023-07-13T02:00:36;4.80;;;1.85;;
14472;SDS011;7322;50.872;4.386;2023-07-13T02:03:03;4.93;;;1.55;;
14472;SDS011;7322;50.872;4.386;2023-07-13T02:05:30;5.93;;;1.40;;
14472;SDS011;7322;50.872;4.386;2023-07-13T02:07:57;6.05;;;2.10;;
14472;SDS011;7322;50.872;4.386;2023-07-13T02:10:24;5.30;;;1.92;;
14472;SDS011;7322;50.872;4.386;2023-07-13T02:12:53;6.65;;;2.10;;
14472;SDS011;7322;50.872;4.386;2023-07-13T02:15:20;5.25;;;1.98;;
14472;SDS011;7322;50.872;4.386;2023-07-13T02:17:47;4.25;;;1.70;;
14472;SDS011;7322;50.872;4.386;2023-07-13T02:20:14;6.05;;;1.90;;
14472;SDS011;7322;50.872;4.386;2023-07-13T02:22:41;4.40;;;1.98;;
14472;SDS011;7322;50.872;4.386;2023-07-13T02:25:08;6.38;;;1.75;;
14472;SDS011;7322;50.872;4.386;2023-07-13T02:27:35;3.17;;;1.42;;
14472;SDS011;7322;50.872;4.386;2023-07-13T02:30:04;4.63;;;1.83;;
14472;SDS011;7322;50.872;4.386;2023-07-13T02:32:32;4.35;;;1.98;;
14472;SDS011;7322;50.872;4.386;2023-07-13T02:35:00;4.93;;;1.60;;
14472;SDS011;7322;50.872;4.386;2023-07-13T02:37:28;5.07;;;2.25;;
14472;SDS011;7322;50.872;4.386;2023-07-13T02:39:56;3.83;;;1.70;;
14472;SDS011;7322;50.872;4.386;2023-07-13T02:42:23;6.13;;;1.92;;
14472;SDS011;7322;50.872;4.386;2023-07-13T02:44:50;5.47;;;2.22;;
14472;SDS011;7322;50.872;4.386;2023-07-13T02:47:18;4.90;;;1.83;;
14472;SDS011;7322;50.872;4.386;2023-07-13T02:49:45;6.65;;;2.00;;
14472;SDS011;7322;50.872;4.386;2023-07-13T02:52:12;6.25;;;1.92;;
14472;SDS011;7322;50.872;4.386;2023-07-13T02:54:39;5.85;;;2.20;;
14472;SDS011;7322;50.872;4.386;2023-07-13T02:57:06;5.30;;;1.95;;
14472;SDS011;7322;50.872;4.386;2023-07-13T02:59:33;4.20;;;1.88;;
14472;SDS011;7322;50.872;4.386;2023-07-13T03:02:00;6.07;;;2.42;;
14472;SDS011;7322;50.872;4.386;2023-07-13T03:04:29;4.63;;;2.10;;
14472;SDS011;7322;50.872;4.386;2023-07-13T03:06:56;4.88;;;2.00;;
14472;SDS011;7322;50.872;4.386;2023-07-13T03:09:23;5.35;;;2.05;;
14472;SDS011;7322;50.872;4.386;2023-07-13T03:11:52;6.50;;;2.10;;
14472;SDS011;7322;50.872;4.386;2023-07-13T03:14:21;4.10;;;1.90;;
14472;SDS011;7322;50.872;4.386;2023-07-13T03:16:49;8.93;;;2.42;;
14472;SDS011;7322;50.872;4.386;2023-07-13T03:19:17;4.55;;;2.08;;
14472;SDS011;7322;50.872;4.386;2023-07-13T03:21:46;5.40;;;2.00;;
14472;SDS011;7322;50.872;4.386;2023-07-13T03:24:13;5.32;;;1.90;;
14472;SDS011;7322;50.872;4.386;2023-07-13T03:26:40;6.28;;;2.70;;
14472;SDS011;7322;50.872;4.386;2023-07-13T03:29:07;5.80;;;2.08;;
14472;SDS011;7322;50.872;4.386;2023-07-13T03:31:35;5.50;;;1.88;;
14472;SDS011;7322;50.872;4.386;2023-07-13T03:34:03;5.07;;;2.00;;
14472;SDS011;7322;50.872;4.386;2023-07-13T03:36:30;4.05;;;1.90;;
14472;SDS011;7322;50.872;4.386;2023-07-13T03:39:01;6.68;;;2.25;;
14472;SDS011;7322;50.872;4.386;2023-07-13T03:41:29;3.65;;;1.70;;
14472;SDS011;7322;50.872;4.386;2023-07-13T03:43:56;6.15;;;2.08;;
14472;SDS011;7322;50.872;4.386;2023-07-13T03:46:23;6.35;;;2.20;;
14472;SDS011;7322;50.872;4.386;2023-07-13T03:48:50;5.32;;;2.10;;
14472;SDS011;7322;50.872;4.386;2023-07-13T03:51:18;4.95;;;2.13;;
14472;SDS011;7322;50.872;4.386;2023-07-13T03:53:46;5.00;;;1.88;;
14472;SDS011;7322;50.872;4.386;2023-07-13T03:56:15;8.68;;;2.25;;
14472;SDS011;7322;50.872;4.386;2023-07-13T03:58:44;6.13;;;2.28;;
14472;SDS011;7322;50.872;4.386;2023-07-13T04:01:13;4.90;;;2.08;;
14472;SDS011;7322;50.872;4.386;2023-07-13T04:03:42;5.32;;;2.10;;
14472;SDS011;7322;50.872;4.386;2023-07-13T04:06:13;5.32;;;1.98;;
14472;SDS011;7322;50.872;4.386;2023-07-13T04:08:47;7.13;;;2.20;;
14472;SDS011;7322;50.872;4.386;2023-07-13T04:11:17;6.03;;;2.28;;
14472;SDS011;7322;50.872;4.386;2023-07-13T04:13:45;6.22;;;2.67;;
14472;SDS011;7322;50.872;4.386;2023-07-13T04:16:12;7.95;;;2.40;;
14472;SDS011;7322;50.872;4.386;2023-07-13T04:18:39;6.50;;;2.40;;
14472;SDS011;7322;50.872;4.386;2023-07-13T04:21:07;6.60;;;2.38;;
14472;SDS011;7322;50.872;4.386;2023-07-13T04:23:35;7.45;;;2.53;;
14472;SDS011;7322;50.872;4.386;2023-07-13T04:26:02;8.57;;;2.70;;
14472;SDS011;7322;50.872;4.386;2023-07-13T04:28:30;6.25;;;2.13;;
14472;SDS011;7322;50.872;4.386;2023-07-13T04:30:58;4.78;;;2.25;;
14472;SDS011;7322;50.872;4.386;2023-07-13T04:33:25;7.15;;;2.58;;
14472;SDS011;7322;50.872;4.386;2023-07-13T04:35:53;4.32;;;1.92;;
14472;SDS011;7322;50.872;4.386;2023-07-13T04:38:22;7.88;;;2.20;;
14472;SDS011;7322;50.872;4.386;2023-07-13T04:40:51;6.65;;;2.40;;
14472;SDS011;7322;50.872;4.386;2023-07-13T04:43:20;7.32;;;2.42;;
14472;SDS011;7322;50.872;4.386;2023-07-13T04:45:49;5.50;;;2.40;;
14472;SDS011;7322;50.872;4.386;2023-07-13T04:48:16;6.45;;;2.35;;
14472;SDS011;7322;50.872;4.386;2023-07-13T04:50:43;6.15;;;2.47;;
14472;SDS011;7322;50.872;4.386;2023-07-13T04:53:11;4.93;;;2.50;;
14472;SDS011;7322;50.872;4.386;2023-07-13T04:55:38;6.47;;;2.28;;
14472;SDS011;7322;50.872;4.386;2023-07-13T04:58:06;7.05;;;2.42;;
14472;SDS011;7322;50.872;4.386;2023-07-13T05:00:33;6.43;;;2.38;;
14472;SDS011;7322;50.872;4.386;2023-07-13T05:03:02;4.75;;;2.30;;
14472;SDS011;7322;50.872;4.386;2023-07-13T05:05:29;5.63;;;2.13;;
14472;SDS011;7322;50.872;4.386;2023-07-13T05:07:56;5.97;;;2.10;;
14472;SDS011;7322;50.872;4.386;2023-07-13T05:10:23;7.28;;;2.60;;
14472;SDS011;7322;50.872;4.386;2023-07-13T05:12:50;6.30;;;2.30;;
14472;SDS011;7322;50.872;4.386;2023-07-13T05:15:20;7.45;;;2.60;;
14472;SDS011;7322;50.872;4.386;2023-07-13T05:17:47;7.25;;;2.20;;
14472;SDS011;7322;50.872;4.386;2023-07-13T05:20:17;7.53;;;2.50;;
14472;SDS011;7322;50.872;4.386;2023-07-13T05:22:45;8.45;;;2.78;;
14472;SDS011;7322;50.872;4.386;2023-07-13T05:25:13;7.20;;;2.42;;
14472;SDS011;7322;50.872;4.386;2023-07-13T05:27:40;4.80;;;2.30;;
14472;SDS011;7322;50.872;4.386;2023-07-13T05:30:08;5.43;;;2.20;;
14472;SDS011;7322;50.872;4.386;2023-07-13T05:32:42;6.13;;;2.03;;
14472;SDS011;7322;50.872;4.386;2023-07-13T05:35:11;6.45;;;2.60;;
14472;SDS011;7322;50.872;4.386;2023-07-13T05:37:44;6.22;;;2.70;;
14472;SDS011;7322;50.872;4.386;2023-07-13T05:40:12;6.47;;;2.60;;
14472;SDS011;7322;50.872;4.386;2023-07-13T05:42:39;6.38;;;2.33;;
14472;SDS011;7322;50.872;4.386;2023-07-13T05:45:07;5.63;;;2.38;;
14472;SDS011;7322;50.872;4.386;2023-07-13T05:47:34;7.13;;;2.65;;
14472;SDS011;7322;50.872;4.386;2023-07-13T05:50:01;10.95;;;3.40;;
14472;SDS011;7322;50.872;4.386;2023-07-13T05:52:32;7.90;;;2.80;;
14472;SDS011;7322;50.872;4.386;2023-07-13T05:55:01;9.80;;;3.47;;
14472;SDS011;7322;50.872;4.386;2023-07-13T05:57:28;11.70;;;3.42;;
14472;SDS011;7322;50.872;4.386;2023-07-13T05:59:56;9.85;;;3.17;;
14472;SDS011;7322;50.872;4.386;2023-07-13T06:02:23;13.38;;;3.92;;
14472;SDS011;7322;50.872;4.386;2023-07-13T06:04:50;7.32;;;3.15;;
14472;SDS011;7322;50.872;4.386;2023-07-13T06:07:17;8.55;;;2.88;;
14472;SDS011;7322;50.872;4.386;2023-07-13T06:09:51;10.90;;;3.00;;
14472;SDS011;7322;50.872;4.386;2023-07-13T06:12:20;8.95;;;3.28;;
14472;SDS011;7322;50.872;4.386;2023-07-13T06:14:52;12.88;;;3.58;;
14472;SDS011;7322;50.872;4.386;2023-07-13T06:17:20;16.95;;;3.70;;
14472;SDS011;7322;50.872;4.386;2023-07-13T06:19:47;12.48;;;3.45;;
14472;SDS011;7322;50.872;4.386;2023-07-13T06:22:14;9.32;;;3.55;;
14472;SDS011;7322;50.872;4.386;2023-07-13T06:24:41;11.55;;;3.33;;
14472;SDS011;7322;50.872;4.386;2023-07-13T06:27:15;12.02;;;3.13;;
14472;SDS011;7322;50.872;4.386;2023-07-13T06:29:46;6.30;;;2.63;;
14472;SDS011;7322;50.872;4.386;2023-07-13T06:32:13;7.03;;;2.92;;
14472;SDS011;7322;50.872;4.386;2023-07-13T06:34:54;11.55;;;3.30;;
14472;SDS011;7322;50.872;4.386;2023-07-13T06:37:21;9.75;;;3.30;;
14472;SDS011;7322;50.872;4.386;2023-07-13T06:39:48;8.77;;;2.78;;
14472;SDS011;7322;50.872;4.386;2023-07-13T06:44:54;7.65;;;2.80;;
14472;SDS011;7322;50.872;4.386;2023-07-13T06:47:25;9.63;;;2.90;;
14472;SDS011;7322;50.872;4.386;2023-07-13T06:50:00;10.60;;;3.25;;
14472;SDS011;7322;50.872;4.386;2023-07-13T06:54:58;7.90;;;2.75;;
14472;SDS011;7322;50.872;4.386;2023-07-13T06:57:39;6.88;;;2.50;;
14472;SDS011;7322;50.872;4.386;2023-07-13T07:00:25;10.40;;;3.08;;
14472;SDS011;7322;50.872;4.386;2023-07-13T07:02:52;10.88;;;2.78;;
14472;SDS011;7322;50.872;4.386;2023-07-13T07:08:15;8.82;;;2.65;;
14472;SDS011;7322;50.872;4.386;2023-07-13T07:10:44;10.45;;;2.95;;
14472;SDS011;7322;50.872;4.386;2023-07-13T07:13:16;9.13;;;3.13;;
14472;SDS011;7322;50.872;4.386;2023-07-13T07:15:46;6.65;;;2.70;;
14472;SDS011;7322;50.872;4.386;2023-07-13T07:18:14;6.85;;;2.55;;
14472;SDS011;7322;50.872;4.386;2023-07-13T07:23:28;8.57;;;2.80;;
14472;SDS011;7322;50.872;4.386;2023-07-13T07:25:59;9.52;;;2.78;;
14472;SDS011;7322;50.872;4.386;2023-07-13T07:28:28;9.48;;;3.30;;
14472;SDS011;7322;50.872;4.386;2023-07-13T07:30:58;9.98;;;3.05;;
14472;SDS011;7322;50.872;4.386;2023-07-13T07:33:26;7.85;;;3.10;;
14472;SDS011;7322;50.872;4.386;2023-07-13T07:35:53;8.82;;;3.40;;
14472;SDS011;7322;50.872;4.386;2023-07-13T07:38:27;6.60;;;2.90;;
14472;SDS011;7322;50.872;4.386;2023-07-13T07:40:54;9.00;;;3.17;;
14472;SDS011;7322;50.872;4.386;2023-07-13T07:43:21;8.13;;;3.28;;
14472;SDS011;7322;50.872;4.386;2023-07-13T07:45:48;5.38;;;2.83;;
14472;SDS011;7322;50.872;4.386;2023-07-13T07:48:19;7.55;;;3.20;;
14472;SDS011;7322;50.872;4.386;2023-07-13T07:50:46;11.88;;;3.15;;
14472;SDS011;7322;50.872;4.386;2023-07-13T07:53:13;14.85;;;3.17;;
14472;SDS011;7322;50.872;4.386;2023-07-13T07:55:40;13.60;;;3.20;;
14472;SDS011;7322;50.872;4.386;2023-07-13T07:58:07;8.50;;;2.95;;
14472;SDS011;7322;50.872;4.386;2023-07-13T08:00:35;7.78;;;3.13;;
14472;SDS011;7322;50.872;4.386;2023-07-13T08:03:02;7.55;;;2.88;;
14472;SDS011;7322;50.872;4.386;2023-07-13T08:05:31;7.18;;;2.67;;
14472;SDS011;7322;50.872;4.386;2023-07-13T08:08:02;9.10;;;3.28;;
14472;SDS011;7322;50.872;4.386;2023-07-13T08:10:30;10.85;;;3.17;;
14472;SDS011;7322;50.872;4.386;2023-07-13T08:12:57;6.75;;;2.65;;
14472;SDS011;7322;50.872;4.386;2023-07-13T08:15:24;8.18;;;2.70;;
14472;SDS011;7322;50.872;4.386;2023-07-13T08:17:52;7.03;;;2.50;;
14472;SDS011;7322;50.872;4.386;2023-07-13T08:20:21;6.20;;;2.65;;
14472;SDS011;7322;50.872;4.386;2023-07-13T08:22:50;6.75;;;2.67;;
14472;SDS011;7322;50.872;4.386;2023-07-13T08:25:18;8.77;;;2.65;;
14472;SDS011;7322;50.872;4.386;2023-07-13T08:27:45;6.70;;;2.63;;
14472;SDS011;7322;50.872;4.386;2023-07-13T08:30:12;7.50;;;2.67;;
14472;SDS011;7322;50.872;4.386;2023-07-13T08:32:40;8.07;;;2.85;;
14472;SDS011;7322;50.872;4.386;2023-07-13T08:35:08;5.88;;;2.30;;
14472;SDS011;7322;50.872;4.386;2023-07-13T08:37:42;7.82;;;2.95;;
14472;SDS011;7322;50.872;4.386;2023-07-13T08:40:13;7.10;;;2.60;;
14472;SDS011;7322;50.872;4.386;2023-07-13T08:42:42;7.63;;;2.53;;
14472;SDS011;7322;50.872;4.386;2023-07-13T08:45:14;10.20;;;2.97;;
14472;SDS011;7322;50.872;4.386;2023-07-13T08:47:48;5.70;;;2.47;;
14472;SDS011;7322;50.872;4.386;2023-07-13T08:50:21;6.25;;;2.72;;
14472;SDS011;7322;50.872;4.386;2023-07-13T08:52:54;6.68;;;2.30;;
14472;SDS011;7322;50.872;4.386;2023-07-13T08:55:26;10.13;;;2.83;;
14472;SDS011;7322;50.872;4.386;2023-07-13T08:57:59;9.90;;;2.67;;
14472;SDS011;7322;50.872;4.386;2023-07-13T09:00:33;6.60;;;2.28;;
14472;SDS011;7322;50.872;4.386;2023-07-13T09:03:07;6.40;;;2.33;;
14472;SDS011;7322;50.872;4.386;2023-07-13T09:05:52;5.88;;;2.63;;
14472;SDS011;7322;50.872;4.386;2023-07-13T09:08:33;5.15;;;2.40;;
14472;SDS011;7322;50.872;4.386;2023-07-13T09:11:20;5.45;;;2.30;;
14472;SDS011;7322;50.872;4.386;2023-07-13T09:13:57;5.97;;;2.25;;
14472;SDS011;7322;50.872;4.386;2023-07-13T09:16:33;5.85;;;2.30;;
14472;SDS011;7322;50.872;4.386;2023-07-13T09:19:01;7.05;;;2.67;;
14472;SDS011;7322;50.872;4.386;2023-07-13T09:21:32;7.60;;;2.15;;
14472;SDS011;7322;50.872;4.386;2023-07-13T09:24:22;7.07;;;2.67;;
14472;SDS011;7322;50.872;4.386;2023-07-13T09:26:56;5.78;;;2.38;;
14472;SDS011;7322;50.872;4.386;2023-07-13T09:29:26;6.63;;;2.53;;
14472;SDS011;7322;50.872;4.386;2023-07-13T09:31:55;7.07;;;2.60;;
14472;SDS011;7322;50.872;4.386;2023-07-13T09:34:25;6.47;;;2.38;;
14472;SDS011;7322;50.872;4.386;2023-07-13T09:36:52;5.30;;;2.35;;
14472;SDS011;7322;50.872;4.386;2023-07-13T09:39:30;6.72;;;2.33;;
14472;SDS011;7322;50.872;4.386;2023-07-13T09:42:12;7.40;;;2.38;;
14472;SDS011;7322;50.872;4.386;2023-07-13T09:44:50;8.60;;;2.45;;
14472;SDS011;7322;50.872;4.386;2023-07-13T09:47:22;7.03;;;2.53;;
14472;SDS011;7322;50.872;4.386;2023-07-13T09:49:54;6.40;;;2.38;;
14472;SDS011;7322;50.872;4.386;2023-07-13T09:52:23;6.93;;;2.50;;
14472;SDS011;7322;50.872;4.386;2023-07-13T09:54:51;5.97;;;2.38;;
14472;SDS011;7322;50.872;4.386;2023-07-13T09:57:32;7.70;;;2.30;;
14472;SDS011;7322;50.872;4.386;2023-07-13T09:59:59;5.47;;;2.53;;
14472;SDS011;7322;50.872;4.386;2023-07-13T10:02:27;5.43;;;2.40;;
14472;SDS011;7322;50.872;4.386;2023-07-13T10:04:59;5.55;;;2.50;;
14472;SDS011;7322;50.872;4.386;2023-07-13T10:07:28;8.90;;;2.63;;
14472;SDS011;7322;50.872;4.386;2023-07-13T10:09:57;4.93;;;2.25;;
14472;SDS011;7322;50.872;4.386;2023-07-13T10:12:28;5.95;;;2.70;;
14472;SDS011;7322;50.872;4.386;2023-07-13T10:14:58;4.30;;;2.20;;
14472;SDS011;7322;50.872;4.386;2023-07-13T10:17:27;4.82;;;2.10;;
14472;SDS011;7322;50.872;4.386;2023-07-13T10:19:57;5.78;;;2.28;;
14472;SDS011;7322;50.872;4.386;2023-07-13T10:22:33;6.78;;;2.13;;
14472;SDS011;7322;50.872;4.386;2023-07-13T10:25:16;6.20;;;2.10;;
14472;SDS011;7322;50.872;4.386;2023-07-13T10:27:44;6.03;;;2.17;;
14472;SDS011;7322;50.872;4.386;2023-07-13T10:30:15;5.00;;;2.22;;
14472;SDS011;7322;50.872;4.386;2023-07-13T10:32:46;3.97;;;1.90;;
14472;SDS011;7322;50.872;4.386;2023-07-13T10:35:14;7.53;;;2.33;;
14472;SDS011;7322;50.872;4.386;2023-07-13T10:37:45;5.85;;;2.40;;
14472;SDS011;7322;50.872;4.386;2023-07-13T10:40:16;5.40;;;2.60;;
14472;SDS011;7322;50.872;4.386;2023-07-13T10:42:48;5.63;;;2.55;;
14472;SDS011;7322;50.872;4.386;2023-07-13T10:45:20;4.97;;;1.98;;
14472;SDS011;7322;50.872;4.386;2023-07-13T10:47:49;4.15;;;1.95;;
14472;SDS011;7322;50.872;4.386;2023-07-13T10:50:21;6.47;;;2.78;;
14472;SDS011;7322;50.872;4.386;2023-07-13T10:52:50;3.47;;;2.00;;
14472;SDS011;7322;50.872;4.386;2023-07-13T10:55:36;4.97;;;2.40;;
14472;SDS011;7322;50.872;4.386;2023-07-13T10:58:13;5.13;;;2.40;;
14472;SDS011;7322;50.872;4.386;2023-07-13T11:03:50;6.15;;;2.55;;
14472;SDS011;7322;50.872;4.386;2023-07-13T11:06:30;6.85;;;2.65;;
14472;SDS011;7322;50.872;4.386;2023-07-13T11:09:17;3.80;;;2.22;;
14472;SDS011;7322;50.872;4.386;2023-07-13T11:11:56;4.15;;;2.20;;
14472;SDS011;7322;50.872;4.386;2023-07-13T11:14:29;5.22;;;2.17;;
14472;SDS011;7322;50.872;4.386;2023-07-13T11:17:00;5.15;;;2.20;;
14472;SDS011;7322;50.872;4.386;2023-07-13T11:19:53;6.18;;;2.10;;
14472;SDS011;7322;50.872;4.386;2023-07-13T11:22:42;5.13;;;2.50;;
14472;SDS011;7322;50.872;4.386;2023-07-13T11:25:26;5.93;;;2.10;;
14472;SDS011;7322;50.872;4.386;2023-07-13T11:28:05;6.35;;;2.40;;
14472;SDS011;7322;50.872;4.386;2023-07-13T11:30:40;5.70;;;2.28;;
14472;SDS011;7322;50.872;4.386;2023-07-13T11:33:19;3.97;;;2.15;;
14472;SDS011;7322;50.872;4.386;2023-07-13T11:35:51;5.32;;;1.98;;
14472;SDS011;7322;50.872;4.386;2023-07-13T11:38:37;4.65;;;2.08;;
14472;SDS011;7322;50.872;4.386;2023-07-13T11:41:12;4.85;;;1.92;;
14472;SDS011;7322;50.872;4.386;2023-07-13T11:43:42;4.63;;;2.15;;
14472;SDS011;7322;50.872;4.386;2023-07-13T11:46:14;6.25;;;2.28;;
14472;SDS011;7322;50.872;4.386;2023-07-13T11:48:42;5.35;;;2.13;;
14472;SDS011;7322;50.872;4.386;2023-07-13T11:51:15;5.93;;;1.92;;
14472;SDS011;7322;50.872;4.386;2023-07-13T11:53:47;4.80;;;2.13;;
14472;SDS011;7322;50.872;4.386;2023-07-13T11:56:16;5.90;;;2.47;;
14472;SDS011;7322;50.872;4.386;2023-07-13T11:58:43;4.57;;;2.13;;
14472;SDS011;7322;50.872;4.386;2023-07-13T12:01:15;5.93;;;2.50;;
14472;SDS011;7322;50.872;4.386;2023-07-13T12:03:45;4.63;;;2.05;;
14472;SDS011;7322;50.872;4.386;2023-07-13T12:06:22;5.13;;;2.10;;
14472;SDS011;7322;50.872;4.386;2023-07-13T12:08:55;5.80;;;2.60;;
14472;SDS011;7322;50.872;4.386;2023-07-13T12:11:23;5.63;;;1.85;;
14472;SDS011;7322;50.872;4.386;2023-07-13T12:13:50;4.53;;;1.95;;
14472;SDS011;7322;50.872;4.386;2023-07-13T12:16:20;5.13;;;2.30;;
14472;SDS011;7322;50.872;4.386;2023-07-13T12:18:52;5.65;;;2.00;;
14472;SDS011;7322;50.872;4.386;2023-07-13T12:21:22;4.00;;;2.08;;
14472;SDS011;7322;50.872;4.386;2023-07-13T12:23:54;5.43;;;2.30;;
14472;SDS011;7322;50.872;4.386;2023-07-13T12:26:21;6.30;;;2.00;;
14472;SDS011;7322;50.872;4.386;2023-07-13T12:28:49;5.68;;;2.15;;
14472;SDS011;7322;50.872;4.386;2023-07-13T12:31:24;3.20;;;1.90;;
14472;SDS011;7322;50.872;4.386;2023-07-13T12:34:00;4.55;;;1.90;;
14472;SDS011;7322;50.872;4.386;2023-07-13T12:36:31;3.65;;;1.98;;
14472;SDS011;7322;50.872;4.386;2023-07-13T12:39:00;4.88;;;1.90;;
14472;SDS011;7322;50.872;4.386;2023-07-13T12:41:31;5.22;;;2.10;;
14472;SDS011;7322;50.872;4.386;2023-07-13T12:43:59;2.58;;;1.60;;
14472;SDS011;7322;50.872;4.386;2023-07-13T12:46:27;5.97;;;2.13;;
14472;SDS011;7322;50.872;4.386;2023-07-13T12:48:54;4.28;;;1.70;;
14472;SDS011;7322;50.872;4.386;2023-07-13T12:51:24;3.95;;;1.98;;
14472;SDS011;7322;50.872;4.386;2023-07-13T12:53:55;5.22;;;2.13;;
14472;SDS011;7322;50.872;4.386;2023-07-13T12:56:25;3.92;;;1.83;;
14472;SDS011;7322;50.872;4.386;2023-07-13T12:58:57;4.15;;;1.88;;
14472;SDS011;7322;50.872;4.386;2023-07-13T13:01:26;2.75;;;1.67;;
14472;SDS011;7322;50.872;4.386;2023-07-13T13:03:55;3.83;;;1.92;;
14472;SDS011;7322;50.872;4.386;2023-07-13T13:06:23;3.13;;;1.95;;
14472;SDS011;7322;50.872;4.386;2023-07-13T13:08:52;4.72;;;2.42;;
14472;SDS011;7322;50.872;4.386;2023-07-13T13:11:23;3.47;;;2.08;;
14472;SDS011;7322;50.872;4.386;2023-07-13T13:13:51;4.93;;;2.40;;
14472;SDS011;7322;50.872;4.386;2023-07-13T13:16:20;3.67;;;2.08;;
14472;SDS011;7322;50.872;4.386;2023-07-13T13:18:49;2.75;;;2.10;;
14472;SDS011;7322;50.872;4.386;2023-07-13T13:21:18;3.63;;;2.10;;
14472;SDS011;7322;50.872;4.386;2023-07-13T13:23:45;4.68;;;2.22;;
14472;SDS011;7322;50.872;4.386;2023-07-13T13:26:14;4.45;;;2.30;;
14472;SDS011;7322;50.872;4.386;2023-07-13T13:28:42;3.75;;;2.08;;
14472;SDS011;7322;50.872;4.386;2023-07-13T13:31:10;5.25;;;2.65;;
14472;SDS011;7322;50.872;4.386;2023-07-13T13:33:38;4.05;;;2.00;;
14472;SDS011;7322;50.872;4.386;2023-07-13T13:36:12;4.88;;;2.40;;
14472;SDS011;7322;50.872;4.386;2023-07-13T13:38:42;4.10;;;2.47;;
14472;SDS011;7322;50.872;4.386;2023-07-13T13:41:09;2.75;;;2.00;;
14472;SDS011;7322;50.872;4.386;2023-07-13T13:43:39;3.42;;;2.42;;
14472;SDS011;7322;50.872;4.386;2023-07-13T13:46:13;3.90;;;2.38;;
14472;SDS011;7322;50.872;4.386;2023-07-13T13:48:42;3.67;;;2.30;;
14472;SDS011;7322;50.872;4.386;2023-07-13T13:51:15;3.20;;;2.25;;
14472;SDS011;7322;50.872;4.386;2023-07-13T13:53:43;4.10;;;2.22;;
14472;SDS011;7322;50.872;4.386;2023-07-13T13:56:10;3.78;;;2.00;;
14472;SDS011;7322;50.872;4.386;2023-07-13T13:58:39;4.97;;;2.00;;
14472;SDS011;7322;50.872;4.386;2023-07-13T14:01:10;3.63;;;2.50;;
14472;SDS011;7322;50.872;4.386;2023-07-13T14:03:39;4.10;;;2.17;;
14472;SDS011;7322;50.872;4.386;2023-07-13T14:06:07;3.00;;;2.10;;
14472;SDS011;7322;50.872;4.386;2023-07-13T14:08:37;2.85;;;1.90;;
14472;SDS011;7322;50.872;4.386;2023-07-13T14:11:04;2.20;;;1.83;;
14472;SDS011;7322;50.872;4.386;2023-07-13T14:13:34;3.35;;;2.13;;
14472;SDS011;7322;50.872;4.386;2023-07-13T14:16:08;4.43;;;2.13;;
14472;SDS011;7322;50.872;4.386;2023-07-13T14:18:37;2.40;;;1.83;;
14472;SDS011;7322;50.872;4.386;2023-07-13T14:21:08;2.40;;;1.73;;
14472;SDS011;7322;50.872;4.386;2023-07-13T14:23:39;3.17;;;2.15;;
14472;SDS011;7322;50.872;4.386;2023-07-13T14:26:08;5.57;;;2.13;;
14472;SDS011;7322;50.872;4.386;2023-07-13T14:28:37;3.88;;;1.80;;
14472;SDS011;7322;50.872;4.386;2023-07-13T14:31:10;2.30;;;1.92;;
14472;SDS011;7322;50.872;4.386;2023-07-13T14:33:38;2.95;;;1.88;;
14472;SDS011;7322;50.872;4.386;2023-07-13T14:36:07;3.97;;;2.00;;
14472;SDS011;7322;50.872;4.386;2023-07-13T14:38:47;2.58;;;1.80;;
14472;SDS011;7322;50.872;4.386;2023-07-13T14:41:26;3.20;;;1.90;;
14472;SDS011;7322;50.872;4.386;2023-07-13T14:43:53;2.58;;;1.85;;
14472;SDS011;7322;50.872;4.386;2023-07-13T14:46:24;4.05;;;1.90;;
14472;SDS011;7322;50.872;4.386;2023-07-13T14:48:57;2.53;;;1.60;;
14472;SDS011;7322;50.872;4.386;2023-07-13T14:51:27;2.20;;;1.80;;
14472;SDS011;7322;50.872;4.386;2023-07-13T14:53:54;3.85;;;1.65;;
14472;SDS011;7322;50.872;4.386;2023-07-13T14:56:21;2.45;;;1.60;;
14472;SDS011;7322;50.872;4.386;2023-07-13T14:58:48;3.33;;;1.92;;
14472;SDS011;7322;50.872;4.386;2023-07-13T15:01:16;3.10;;;2.10;;
14472;SDS011;7322;50.872;4.386;2023-07-13T15:03:45;3.08;;;1.70;;
14472;SDS011;7322;50.872;4.386;2023-07-13T15:06:14;4.63;;;1.83;;
14472;SDS011;7322;50.872;4.386;2023-07-13T15:08:42;2.75;;;1.80;;
14472;SDS011;7322;50.872;4.386;2023-07-13T15:11:09;2.33;;;1.73;;
14472;SDS011;7322;50.872;4.386;2023-07-13T15:13:37;4.57;;;2.28;;
14472;SDS011;7322;50.872;4.386;2023-07-13T15:16:09;2.80;;;1.80;;
14472;SDS011;7322;50.872;4.386;2023-07-13T15:18:42;2.97;;;1.92;;
14472;SDS011;7322;50.872;4.386;2023-07-13T15:21:12;3.03;;;1.63;;
14472;SDS011;7322;50.872;4.386;2023-07-13T15:23:43;3.50;;;1.92;;
14472;SDS011;7322;50.872;4.386;2023-07-13T15:26:11;2.83;;;1.85;;
14472;SDS011;7322;50.872;4.386;2023-07-13T15:28:40;3.80;;;1.92;;
14472;SDS011;7322;50.872;4.386;2023-07-13T15:31:14;3.22;;;1.73;;